Irai, Brazil
Current Conditions -  °F | °C
As of 7:00 AM on Wednesday 28 Jan 2015 (Local Time) from SBCH Reporting Station
Broken Clouds Broken Clouds  
Wind Chill: 70°   Ceiling: 4000
Heat Index: 70°   Visibility: 6mi
Dew Point: 68°   Wind: 3mph
Humidity: 94%   Direction: 90°E
Pressure: 29.91"   Gusts: NA
Location:  27.19°S, 53.25°W
Report Text: SBCH 280900Z 09003KT 9999 BKN040 BKN100 21/20 Q1013
Loading
Personal Weather Stations






























Interactive Weather Map New forecast layout! Learn more

10-Day Weather Forecast

Advertisements
Track Severe Weather on mobile